EGNS/IOM METAR and TAF weather

Enter ICAO airport designator
Station Type Date Time Source
EGNS METAR 2021/01/17 19:20 UTC NOAA

EGNS 171920Z 25015KT 9999 -RA FEW015 07/05 Q1023 TEMPO 7000 RADZ BKN009


Station Type Date Time Source
EGNS Decoded METAR 2021/01/17 19:20 UTC NOAA

Isle Of Man / Ronaldsway Airport, United Kingdom (EGNS) 54-05N 004-38W 0M
Jan 17, 2021 - 02:20 PM EST / 2021.01.17 1920 UTC
Wind: from the WSW (250 degrees) at 17 MPH (15 KT):0
Visibility: greater than 7 mile(s):0
Sky conditions: mostly clear
Weather: light rain
Temperature: 44 F (7 C)
Dew Point: 41 F (5 C)
Relative Humidity: 87%
Pressure (altimeter): 30.21 in. Hg (1023 hPa)
ob: EGNS 171920Z 25015KT 9999 -RA FEW015 07/05 Q1023 TEMPO 7000 RADZ BKN009
cycle: 19

Station Type Date Time Source
EGNS TAF 2019/01/16 05:00 UTC NOAA

TAF EGNS 160500 Z 1606/1615 28020KT 9999 FEW010 BKN025
TEMPO 1606/1609 6000 RA BKN010 PROB30
TEMPO 1613/1615 7000 -SHRA

Example: see airport list